Kite, Kentucky
Current Conditions -  °F | °C
As of 3:55 AM on Wednesday 26 Nov 2014 (Local Time) from KPBX Reporting Station
Scattered Clouds Scattered Clouds  
Wind Chill: 32°   Ceiling: Unl
Heat Index: 38°   Visibility: 10mi
Dew Point: 29°   Wind: 7mph
Humidity: 71%   Direction: 340°NNW
Pressure: 30"   Gusts: NA
Location:  37.32°N, 82.8°W
Report Text: KPBX 260855Z AUTO 34006KT 10SM SCT120 03/M02 A3000 RMK AO2 T00321017
Loading
Personal Weather Stations






























Interactive Weather Map New forecast layout! Learn more

10-Day Weather Forecast

Advertisements
Track Severe Weather on mobile